Time;durP1;ratioP1;P1;durP2;ratioP2;P2;SDS_P1;SDS_P2;PMS_P1;PMS_P2;Temp;Humidity;BMP_temperature;BMP_pressure;BME280_temperature;BME280_humidity;BME280_pressure;Samples;Min_cycle;Max_cycle;Signal;HPM_P1;HPM_P2
2022/01/25 08:31:19;;;;;;;44.58;23.90;;;;;;;-4.86;73.48;95913.03;5053930;28;20225;-77
2022/01/25 08:33:46;;;;;;;44.08;24.25;;;;;;;-4.85;71.27;95909.59;5039554;28;20029;-77
2022/01/25 08:36:11;;;;;;;37.80;22.90;;;;;;;-3.52;70.71;95897.72;5041953;28;20816;-77
2022/01/25 08:38:37;;;;;;;43.72;24.00;;;;;;;-3.44;62.69;95911.72;5027480;28;20029;-77
2022/01/25 08:41:03;;;;;;;45.72;25.15;;;;;;;-5.77;70.54;95904.41;5041655;28;20449;-77
2022/01/25 08:43:28;;;;;;;45.67;25.95;;;;;;;-1.10;57.71;95906.84;5042802;28;20029;-77
2022/01/25 08:45:53;;;;;;;42.00;24.17;;;;;;;-2.43;55.08;95895.50;4992367;28;20042;-77
2022/01/25 08:48:19;;;;;;;34.60;22.10;;;;;;;-1.57;56.67;95910.91;5003661;28;20026;-77
2022/01/25 08:50:44;;;;;;;45.90;27.60;;;;;;;-0.96;50.63;95901.06;4996383;28;20734;-76
2022/01/25 08:53:11;;;;;;;38.50;23.67;;;;;;;-2.81;57.38;95913.22;4966636;28;20026;-76
2022/01/25 08:55:37;;;;;;;41.83;23.85;;;;;;;-3.33;57.74;95911.25;4983344;28;20189;-75
2022/01/25 08:58:03;;;;;;;44.60;27.60;;;;;;;-1.08;51.24;95899.94;4992950;28;20430;-75
2022/01/25 09:00:28;;;;;;;44.38;27.65;;;;;;;1.04;50.14;95896.72;4994089;28;20467;-76
2022/01/25 09:02:54;;;;;;;53.92;32.35;;;;;;;1.43;45.05;95885.91;4992721;28;20022;-76
2022/01/25 09:05:19;;;;;;;52.63;33.28;;;;;;;0.24;45.88;95881.00;4993430;28;20540;-77
2022/01/25 09:07:46;;;;;;;52.03;30.48;;;;;;;0.24;48.51;95887.81;4993383;28;20033;-76
2022/01/25 09:10:12;;;;;;;51.40;33.13;;;;;;;0.58;46.51;95889.28;4996014;28;20392;-77
2022/01/25 09:12:38;;;;;;;51.13;30.77;;;;;;;1.43;45.37;95878.25;5002810;28;20030;-76
2022/01/25 09:15:04;;;;;;;50.28;32.67;;;;;;;1.59;44.52;95870.47;5004945;28;20038;-77
2022/01/25 09:17:30;;;;;;;49.75;30.27;;;;;;;2.73;41.61;95863.19;5004761;28;20041;-77
2022/01/25 09:19:55;;;;;;;39.15;26.40;;;;;;;4.10;40.64;95863.09;5002634;28;20475;-77
2022/01/25 09:22:21;;;;;;;46.28;29.13;;;;;;;4.41;36.80;95861.69;4995425;28;20034;-78
2022/01/25 09:24:46;;;;;;;41.05;30.20;;;;;;;2.71;40.03;95870.13;5000882;28;20065;-78
2022/01/25 09:27:12;;;;;;;41.45;29.48;;;;;;;2.97;39.78;95862.38;5003146;28;20026;-79
2022/01/25 09:29:37;;;;;;;39.25;28.67;;;;;;;3.63;37.89;95861.28;5004322;28;20058;-78
2022/01/25 09:32:03;;;;;;;32.15;23.60;;;;;;;5.18;38.77;95840.53;5005199;28;20335;-78
2022/01/25 09:34:29;;;;;;;38.03;27.23;;;;;;;7.93;32.86;95837.72;5002706;28;20033;-78
2022/01/25 09:36:54;;;;;;;40.25;29.42;;;;;;;5.66;33.98;95834.22;5003536;28;20471;-77
2022/01/25 09:39:21;;;;;;;42.78;30.45;;;;;;;4.22;37.70;95842.53;5003888;28;20125;-78
2022/01/25 09:41:46;;;;;;;42.05;29.92;;;;;;;4.46;35.88;95837.38;4992571;28;20034;-78
2022/01/25 09:44:12;;;;;;;38.63;28.63;;;;;;;3.22;39.46;95840.25;4977650;28;20427;-79
2022/01/25 09:46:39;;;;;;;34.17;26.42;;;;;;;5.72;37.77;95826.03;4972638;28;20125;-79
2022/01/25 09:49:05;;;;;;;38.35;29.92;;;;;;;3.59;38.48;95824.84;4969706;28;20034;-80
2022/01/25 09:51:31;;;;;;;40.88;29.02;;;;;;;5.50;35.19;95823.47;4989295;28;20527;-80
2022/01/25 09:53:57;;;;;;;36.75;26.88;;;;;;;6.89;34.57;95819.97;4995873;28;20018;-81
2022/01/25 09:56:22;;;;;;;42.47;30.10;;;;;;;5.53;36.13;95812.16;5001668;28;20029;-80
2022/01/25 09:58:49;;;;;;;45.15;32.65;;;;;;;4.40;36.78;95821.63;5001803;28;20392;-81
2022/01/25 10:01:15;;;;;;;44.92;30.05;;;;;;;4.67;39.01;95819.59;5010795;28;20038;-81
2022/01/25 10:03:43;;;;;;;49.05;34.40;;;;;;;4.87;35.79;95820.66;5011649;28;20026;-81
2022/01/25 10:06:15;;;;;;;55.10;37.03;;;;;;;4.55;37.30;95823.06;5015230;28;20069;-81
2022/01/25 10:08:41;;;;;;;51.05;35.13;;;;;;;5.28;36.48;95815.78;5015764;28;20031;-81
2022/01/25 10:18:58;;;;;;;52.70;37.08;;;;;;;3.94;38.62;95785.66;5239835;23;20053;-82
2022/01/25 10:21:27;;;;;;;51.80;36.60;;;;;;;4.35;38.20;95739.09;5023834;28;20010;-82
2022/01/25 10:24:01;;;;;;;60.78;39.83;;;;;;;3.62;38.05;95795.63;5022294;28;20124;-82
2022/01/25 10:31:42;;;;;;;62.78;37.85;;;;;;;-3.43;54.95;95738.72;5764929;23;20097;-79
2022/01/25 10:34:09;;;;;;;60.40;35.25;;;;;;;-4.34;57.71;95749.38;5016081;28;20044;-81
2022/01/25 10:36:46;;;;;;;64.03;35.08;;;;;;;-3.66;61.01;95814.00;4998216;28;20029;-82
2022/01/25 10:39:14;;;;;;;61.17;32.55;;;;;;;-4.38;61.03;95725.09;4999194;28;20022;-81
2022/01/25 10:41:42;;;;;;;64.80;30.33;;;;;;;-3.26;61.09;95803.78;5013661;28;20038;-81
2022/01/25 10:44:08;;;;;;;55.33;31.88;;;;;;;-1.23;52.10;95799.94;4999665;28;20082;-81
2022/01/25 10:46:34;;;;;;;50.85;31.08;;;;;;;-2.87;57.43;95755.59;4981009;28;20022;-79
2022/01/25 10:49:03;;;;;;;51.70;29.42;;;;;;;-2.91;57.55;95731.31;5026918;28;20025;-79
2022/01/25 10:51:50;;;;;;;49.47;28.25;;;;;;;-2.64;59.56;95788.31;4992348;28;20477;-79
2022/01/25 10:54:16;;;;;;;51.55;29.40;;;;;;;-2.79;60.39;95779.69;5005115;28;20038;-80
2022/01/25 10:56:47;;;;;;;47.65;27.55;;;;;;;-2.97;62.54;95784.78;5008806;28;20026;-79
2022/01/25 10:59:19;;;;;;;51.55;28.67;;;;;;;-2.99;62.67;95758.72;4995943;28;20041;-78
2022/01/25 11:01:54;;;;;;;53.70;27.80;;;;;;;-3.28;64.91;95763.38;4974067;28;20439;-78
2022/01/25 11:04:28;;;;;;;42.50;24.60;;;;;;;-3.14;65.31;95765.25;4945869;28;20491;-78
2022/01/25 11:07:05;;;;;;;41.75;23.67;;;;;;;-3.26;67.56;95765.81;4992796;28;20092;-77
2022/01/25 11:09:39;;;;;;;38.42;22.75;;;;;;;-3.21;66.49;95752.06;4979947;28;20058;-78
2022/01/25 11:12:08;;;;;;;33.85;20.17;;;;;;;-3.23;67.40;95753.84;4984283;28;20036;-78
2022/01/25 11:17:21;;;;;;;31.35;16.95;;;;;;;-3.92;69.41;95727.38;4998825;28;20036;-79
2022/01/25 11:19:47;;;;;;;29.93;17.97;;;;;;;-4.34;71.83;95739.28;5002958;28;20058;-80
2022/01/25 11:22:19;;;;;;;32.67;17.63;;;;;;;-3.94;72.53;95728.31;4965756;28;20050;-79
2022/01/25 11:24:48;;;;;;;27.52;17.17;;;;;;;-4.43;72.12;95740.44;4968743;28;20138;-80
2022/01/25 11:27:14;;;;;;;35.22;17.05;;;;;;;-4.72;73.95;95719.78;4977262;28;20026;-81
2022/01/25 11:29:40;;;;;;;28.52;16.20;;;;;;;-4.59;74.39;95733.56;4985727;28;20033;-81
2022/01/25 11:32:10;;;;;;;28.67;15.70;;;;;;;-4.82;75.98;95715.06;4983047;28;20054;-81
2022/01/25 11:34:37;;;;;;;32.60;16.25;;;;;;;-4.42;74.87;95713.47;4954984;28;20035;-81
2022/01/25 11:37:05;;;;;;;29.75;16.38;;;;;;;-3.89;73.84;95717.13;4979410;28;20038;-78
2022/01/25 11:39:32;;;;;;;32.65;17.27;;;;;;;-4.21;74.57;95705.03;4975005;28;20022;-79
2022/01/25 11:42:23;;;;;;;31.25;17.10;;;;;;;-4.32;74.63;95702.94;4976114;28;20528;-78
2022/01/25 11:44:54;;;;;;;29.05;16.25;;;;;;;-3.89;74.62;95693.56;4951256;28;20559;-78
2022/01/25 11:47:42;;;;;;;28.92;16.73;;;;;;;-3.67;72.75;95693.44;4948119;28;20121;-77
2022/01/25 11:50:10;;;;;;;26.17;15.02;;;;;;;-3.90;74.04;95696.97;4967604;28;20082;-77
2022/01/25 11:52:38;;;;;;;27.67;16.10;;;;;;;-4.16;74.68;95694.72;4945884;28;20100;-76
2022/01/25 11:55:28;;;;;;;27.50;16.55;;;;;;;-3.85;74.79;95695.88;4954650;28;20041;-76
2022/01/25 11:57:57;;;;;;;24.50;15.65;;;;;;;-3.77;73.28;95688.78;4970437;28;20131;-77
2022/01/25 12:00:37;;;;;;;33.17;16.55;;;;;;;-3.98;73.58;95676.25;4969765;28;20116;-77
2022/01/25 12:03:28;;;;;;;31.90;15.98;;;;;;;-4.11;74.75;95680.97;4981310;28;20118;-76
2022/01/25 12:05:55;;;;;;;31.33;16.30;;;;;;;-4.24;75.23;95690.00;4955082;28;20037;-77
2022/01/25 12:08:28;;;;;;;27.77;15.95;;;;;;;-3.82;75.08;95688.13;4934994;28;20419;-78
2022/01/25 12:11:04;;;;;;;27.92;16.88;;;;;;;-3.99;74.31;95683.00;4959601;28;20050;-77
2022/01/25 12:13:31;;;;;;;28.88;16.25;;;;;;;-4.06;74.98;95683.31;4971199;28;20112;-78
2022/01/25 12:16:23;;;;;;;27.25;15.77;;;;;;;-4.32;75.64;95681.88;4976769;28;20022;-77
2022/01/25 12:18:57;;;;;;;28.33;15.60;;;;;;;-4.04;75.28;95664.66;4998418;28;20108;-78
2022/01/25 12:21:44;;;;;;;24.42;15.82;;;;;;;-3.83;74.78;95670.53;4980035;28;20472;-78
2022/01/25 12:24:23;;;;;;;25.55;15.27;;;;;;;-3.90;74.96;95666.59;4993499;28;20034;-78
2022/01/25 12:27:17;;;;;;;27.10;16.98;;;;;;;-3.98;74.40;95666.94;4954108;28;20519;-78
2022/01/25 12:30:02;;;;;;;30.52;16.20;;;;;;;-4.06;75.12;95656.34;4968499;28;20587;-77
2022/01/25 12:32:33;;;;;;;28.40;16.65;;;;;;;-3.81;74.46;95672.09;4965888;28;20053;-77
2022/01/25 12:35:18;;;;;;;22.35;14.50;;;;;;;-3.93;74.29;95661.69;4966423;28;20026;-77
2022/01/25 12:37:53;;;;;;;25.55;15.45;;;;;;;-4.01;75.76;95664.53;4967876;28;20044;-77
2022/01/25 12:40:31;;;;;;;22.75;15.57;;;;;;;-4.06;74.87;95658.88;4985611;28;20490;-77
2022/01/25 12:43:24;;;;;;;25.73;14.68;;;;;;;-4.21;75.16;95638.47;4982046;28;20038;-77
2022/01/25 12:45:59;;;;;;;32.50;16.55;;;;;;;-4.18;76.05;95651.81;4952767;28;20034;-77
2022/01/25 12:48:31;;;;;;;25.70;15.07;;;;;;;-4.11;76.09;95635.47;4958750;28;20034;-77
2022/01/25 12:51:02;;;;;;;27.13;16.40;;;;;;;-4.29;76.64;95627.00;4985783;28;20026;-77
2022/01/25 12:53:29;;;;;;;26.65;15.38;;;;;;;-4.19;76.31;95635.00;4965645;28;20034;-76
2022/01/25 12:55:59;;;;;;;27.90;16.13;;;;;;;-4.04;76.49;95631.81;4964583;28;20038;-77
2022/01/25 12:58:27;;;;;;;29.20;16.13;;;;;;;-4.16;76.82;95614.66;4967378;28;20548;-75
2022/01/25 13:00:55;;;;;;;23.73;15.00;;;;;;;-4.21;76.29;95614.03;4951841;28;20120;-76
2022/01/25 13:03:27;;;;;;;27.95;16.33;;;;;;;-4.32;77.42;95616.19;4966675;28;20026;-76
2022/01/25 13:05:59;;;;;;;26.23;16.33;;;;;;;-4.25;77.16;95607.47;4966193;28;20034;-77
2022/01/25 13:08:39;;;;;;;30.75;16.13;;;;;;;-4.05;77.68;95616.72;4958894;28;20030;-78
2022/01/25 13:11:42;;;;;;;26.70;15.45;;;;;;;-4.05;76.38;95612.47;4982817;28;20065;-77
2022/01/25 13:14:31;;;;;;;24.38;15.90;;;;;;;-4.23;77.09;95597.28;4966880;28;20050;-76
2022/01/25 13:17:01;;;;;;;28.20;16.08;;;;;;;-4.53;77.65;95596.91;4986173;28;20038;-77
2022/01/25 13:19:36;;;;;;;23.35;14.40;;;;;;;-4.46;77.44;95594.03;4987469;28;20029;-78
2022/01/25 13:22:06;;;;;;;25.25;14.45;;;;;;;-4.54;77.15;95592.72;4954002;28;20125;-77
2022/01/25 13:24:43;;;;;;;26.15;14.93;;;;;;;-4.26;77.27;95604.09;4979631;28;20145;-80
2022/01/25 13:27:13;;;;;;;23.38;14.70;;;;;;;-4.44;76.78;95601.56;4951368;28;20063;-78
2022/01/25 13:32:32;;;;;;;26.08;14.90;;;;;;;-4.45;77.61;95604.97;4987357;28;20275;-77
2022/01/25 13:35:20;;;;;;;26.45;14.70;;;;;;;-4.50;77.75;95596.75;4969654;28;20027;-77
2022/01/25 13:38:08;;;;;;;25.33;14.45;;;;;;;-4.68;77.58;95590.75;4957247;28;20100;-77
2022/01/25 13:40:57;;;;;;;25.77;14.60;;;;;;;-4.52;78.06;95594.28;4986290;28;20105;-77
2022/01/25 13:45:51;;;;;;;27.55;15.45;;;;;;;-4.70;78.51;95579.09;4986579;28;20042;-76
2022/01/25 13:48:19;;;;;;;27.10;15.77;;;;;;;-4.78;78.10;95575.19;4952926;28;20487;-77
2022/01/25 13:50:45;;;;;;;25.35;13.90;;;;;;;-4.68;78.47;95587.41;4953551;28;20579;-77
2022/01/25 13:53:11;;;;;;;29.90;14.57;;;;;;;-4.73;77.90;95590.16;4958118;28;20132;-76
2022/01/25 13:55:37;;;;;;;25.52;14.55;;;;;;;-4.76;78.85;95579.34;4967120;28;20113;-78
2022/01/25 13:58:26;;;;;;;23.75;14.15;;;;;;;-4.68;78.68;95578.13;4955368;28;20488;-78
2022/01/25 14:00:55;;;;;;;22.33;13.60;;;;;;;-4.63;77.77;95588.06;4978431;28;20034;-78
2022/01/25 14:03:33;;;;;;;25.58;14.48;;;;;;;-4.84;78.30;95567.03;4967585;28;20057;-77
2022/01/25 14:05:59;;;;;;;26.85;15.57;;;;;;;-4.91;79.26;95574.03;4951375;28;20061;-76
2022/01/25 14:08:38;;;;;;;24.00;15.13;;;;;;;-5.08;79.88;95571.41;4958168;28;20034;-77
2022/01/25 14:11:49;;;;;;;28.08;15.20;;;;;;;-5.06;80.52;95571.31;4956513;28;20034;-76
2022/01/25 14:25:35;;;;;;;26.30;15.85;;;;;;;-5.36;81.68;95578.41;4985046;28;20414;-77
2022/01/25 14:28:03;;;;;;;25.67;15.32;;;;;;;-5.19;81.54;95578.56;4948803;28;20034;-77
2022/01/25 14:30:40;;;;;;;25.30;15.30;;;;;;;-5.28;81.08;95575.59;4950119;28;20030;-77
2022/01/25 14:33:12;;;;;;;28.77;16.65;;;;;;;-5.29;81.32;95577.28;4950912;28;20122;-76
2022/01/25 14:35:50;;;;;;;24.52;14.65;;;;;;;-5.29;81.44;95579.00;4962277;28;20053;-77
2022/01/25 14:38:18;;;;;;;30.00;17.95;;;;;;;-5.47;81.65;95581.38;4963339;28;20049;-77
2022/01/25 14:41:14;;;;;;;29.02;16.00;;;;;;;-5.30;81.42;95563.06;4962990;28;20054;-77
2022/01/25 14:43:49;;;;;;;28.35;15.88;;;;;;;-5.24;81.30;95572.91;4953120;28;20138;-76
2022/01/25 14:46:18;;;;;;;32.90;19.58;;;;;;;-5.35;81.74;95573.31;4947863;29;20031;-76
2022/01/25 14:48:45;;;;;;;35.50;20.13;;;;;;;-5.49;82.28;95579.78;4945402;29;20043;-77
2022/01/25 14:51:12;;;;;;;33.20;20.42;;;;;;;-5.27;83.04;95572.19;4943861;28;20040;-77
2022/01/25 14:53:39;;;;;;;38.80;21.30;;;;;;;-5.35;81.12;95564.91;4963326;28;20053;-77
2022/01/25 14:56:06;;;;;;;38.63;19.90;;;;;;;-5.43;80.68;95575.34;4945523;28;20046;-76
2022/01/25 15:01:18;;;;;;;27.90;16.10;;;;;;;-6.15;81.66;95573.09;4958672;28;20054;-77
2022/01/25 15:03:44;;;;;;;28.02;16.17;;;;;;;-6.11;83.03;95580.50;4964251;28;20019;-77
2022/01/25 15:06:14;;;;;;;26.00;16.17;;;;;;;-6.14;82.42;95569.69;4963786;28;20090;-77
2022/01/25 15:08:59;;;;;;;33.92;18.25;;;;;;;-6.07;82.94;95571.91;4941072;28;20058;-79
2022/01/25 15:11:31;;;;;;;29.30;17.33;;;;;;;-6.05;83.11;95579.44;4958788;28;20221;-77
2022/01/25 15:14:05;;;;;;;25.02;14.90;;;;;;;-6.19;83.04;95572.38;4948643;28;20034;-77
2022/01/25 15:16:31;;;;;;;32.50;17.38;;;;;;;-6.27;83.68;95576.06;4948734;28;20027;-77
2022/01/25 15:18:56;;;;;;;27.08;16.85;;;;;;;-6.48;84.27;95567.56;4969868;28;20084;-77
2022/01/25 15:21:22;;;;;;;29.67;15.18;;;;;;;-6.58;84.53;95574.59;4947921;28;20026;-76
2022/01/25 15:23:49;;;;;;;29.92;16.33;;;;;;;-6.56;84.71;95579.59;4962781;28;20455;-77
2022/01/25 15:26:18;;;;;;;29.25;16.27;;;;;;;-6.65;84.76;95579.94;4947842;28;20031;-76
2022/01/25 15:28:48;;;;;;;33.88;19.00;;;;;;;-6.57;85.23;95588.84;4963967;28;20100;-76
2022/01/25 15:31:17;;;;;;;36.90;19.83;;;;;;;-6.64;85.80;95582.38;4966408;28;20101;-76
2022/01/25 15:33:43;;;;;;;46.53;21.25;;;;;;;-6.67;85.71;95594.25;4968890;28;20055;-76
2022/01/25 15:36:12;;;;;;;42.03;22.30;;;;;;;-6.69;86.17;95594.31;4957425;28;20038;-77
2022/01/25 15:38:38;;;;;;;47.05;24.48;;;;;;;-6.85;85.92;95588.16;4976860;28;20026;-76
2022/01/25 15:41:12;;;;;;;54.83;26.65;;;;;;;-6.84;85.96;95588.97;4969418;28;20065;-76
2022/01/25 15:43:56;;;;;;;54.47;29.60;;;;;;;-6.79;86.80;95594.66;4951023;28;20099;-76
2022/01/25 15:46:30;;;;;;;52.85;27.17;;;;;;;-6.73;86.20;95599.50;4968313;28;20034;-76
2022/01/25 15:48:58;;;;;;;69.03;32.53;;;;;;;-6.89;86.85;95591.63;4965856;28;20030;-76
2022/01/25 15:51:24;;;;;;;61.67;30.23;;;;;;;-6.97;87.04;95601.16;4953003;28;20081;-76
2022/01/25 15:53:51;;;;;;;75.05;34.92;;;;;;;-7.05;87.61;95593.00;4962275;28;20030;-76
2022/01/25 15:56:16;;;;;;;80.95;37.80;;;;;;;-7.05;88.22;95593.00;4975745;28;20034;-76
2022/01/25 15:58:45;;;;;;;77.63;34.58;;;;;;;-7.08;88.47;95604.00;4982464;28;20049;-76
2022/01/25 16:01:11;;;;;;;62.20;31.48;;;;;;;-7.05;87.98;95601.38;4966180;28;20034;-76
2022/01/25 16:03:38;;;;;;;54.83;26.70;;;;;;;-7.16;88.28;95605.13;4965725;28;20029;-76
2022/01/25 16:06:04;;;;;;;43.25;23.67;;;;;;;-7.12;88.09;95614.19;4949937;28;20408;-76
2022/01/25 16:08:30;;;;;;;46.53;20.92;;;;;;;-6.95;88.63;95611.97;4965699;28;20038;-76
2022/01/25 16:10:58;;;;;;;46.78;23.00;;;;;;;-7.11;88.08;95610.81;4949906;28;20424;-76
2022/01/25 16:13:25;;;;;;;47.50;23.63;;;;;;;-7.18;88.15;95620.25;4965523;28;20030;-76
2022/01/25 16:15:50;;;;;;;46.15;23.95;;;;;;;-7.32;88.07;95609.00;4964905;28;20407;-76
2022/01/25 16:18:16;;;;;;;42.50;21.38;;;;;;;-7.25;88.17;95617.97;4966552;28;20022;-76
2022/01/25 16:20:42;;;;;;;38.78;22.20;;;;;;;-7.25;88.93;95617.97;4962821;28;20034;-76
2022/01/25 16:23:07;;;;;;;37.90;22.52;;;;;;;-7.39;88.43;95620.94;4947414;28;20100;-76
2022/01/25 16:25:33;;;;;;;40.70;24.25;;;;;;;-7.31;88.42;95615.66;4967350;28;20497;-75
2022/01/25 16:27:59;;;;;;;40.10;21.23;;;;;;;-7.38;88.52;95620.06;4965275;28;20046;-76
2022/01/25 16:30:24;;;;;;;41.78;23.67;;;;;;;-7.43;89.27;95618.56;4949618;28;20031;-74
2022/01/25 16:32:51;;;;;;;44.50;23.85;;;;;;;-7.43;89.10;95606.00;4964709;28;20081;-75
2022/01/25 16:35:18;;;;;;;44.03;24.65;;;;;;;-7.36;88.89;95615.00;4968107;28;20119;-75
2022/01/25 16:37:44;;;;;;;42.38;23.80;;;;;;;-7.40;89.13;95611.75;4965274;28;20026;-75
2022/01/25 16:40:12;;;;;;;42.40;23.83;;;;;;;-7.63;89.28;95602.41;4949168;28;20041;-75
2022/01/25 16:42:38;;;;;;;47.35;23.95;;;;;;;-7.52;89.16;95607.94;4942121;28;20039;-74
2022/01/25 16:45:06;;;;;;;55.75;25.95;;;;;;;-7.51;88.95;95606.22;4965785;28;20042;-76
2022/01/25 16:47:33;;;;;;;56.60;29.65;;;;;;;-7.62;89.07;95603.22;4990985;28;20026;-76
2022/01/25 16:50:00;;;;;;;47.45;26.33;;;;;;;-7.61;89.13;95600.66;4948393;28;20443;-75
2022/01/25 16:52:26;;;;;;;56.97;29.77;;;;;;;-7.66;89.61;95602.50;4951394;28;20039;-76
2022/01/25 16:54:52;;;;;;;49.63;27.10;;;;;;;-7.72;89.60;95591.81;4968527;28;20053;-75
2022/01/25 16:57:17;;;;;;;44.83;25.77;;;;;;;-7.68;89.81;95586.66;4968573;28;20038;-76
2022/01/25 16:59:43;;;;;;;43.45;22.63;;;;;;;-7.69;89.84;95594.22;4952145;28;20065;-76
2022/01/25 17:02:11;;;;;;;51.00;24.38;;;;;;;-7.82;90.15;95603.81;4967712;28;20038;-76
2022/01/25 17:04:38;;;;;;;49.55;25.67;;;;;;;-7.90;90.14;95590.69;4969996;28;20141;-76
2022/01/25 17:07:04;;;;;;;51.83;25.98;;;;;;;-7.78;89.78;95602.88;4968265;28;20138;-76
2022/01/25 17:09:29;;;;;;;52.10;26.15;;;;;;;-7.85;90.36;95598.06;4963589;28;20124;-75
2022/01/25 17:11:55;;;;;;;49.45;23.67;;;;;;;-7.90;90.11;95598.22;4974729;28;20061;-76
2022/01/25 17:14:20;;;;;;;56.40;27.95;;;;;;;-7.92;89.95;95606.63;4964241;28;20029;-76
2022/01/25 17:16:46;;;;;;;59.03;30.70;;;;;;;-7.96;90.51;95600.88;5006414;28;20030;-76
2022/01/25 17:19:13;;;;;;;64.95;30.88;;;;;;;-8.07;90.54;95591.16;4968618;28;20115;-76
2022/01/25 17:21:40;;;;;;;50.75;26.67;;;;;;;-7.98;91.09;95602.63;4969818;28;20026;-76
2022/01/25 17:24:06;;;;;;;47.50;24.92;;;;;;;-7.96;91.06;95607.63;4969238;28;20416;-76
2022/01/25 17:26:33;;;;;;;49.70;27.20;;;;;;;-7.98;91.03;95602.63;4951299;28;20483;-76
2022/01/25 17:28:58;;;;;;;47.00;24.45;;;;;;;-7.93;91.32;95610.03;4967256;28;20080;-76
2022/01/25 17:31:24;;;;;;;60.70;27.15;;;;;;;-7.98;90.99;95596.78;4975169;28;20046;-76
2022/01/25 17:33:49;;;;;;;54.38;28.98;;;;;;;-8.06;91.08;95607.84;4959008;28;20038;-76
2022/01/25 17:36:15;;;;;;;57.30;30.17;;;;;;;-8.21;91.12;95598.25;4947356;28;20062;-76
2022/01/25 17:38:41;;;;;;;66.43;29.98;;;;;;;-8.21;90.86;95609.97;4946034;29;20035;-77
2022/01/25 17:41:08;;;;;;;72.40;30.77;;;;;;;-8.25;91.59;95610.97;4960129;28;20029;-76
2022/01/25 17:43:33;;;;;;;53.80;25.70;;;;;;;-8.29;91.61;95621.97;4948792;28;20109;-77
2022/01/25 17:46:00;;;;;;;50.38;24.35;;;;;;;-8.22;91.59;95618.41;4956029;28;20039;-77
2022/01/25 17:48:26;;;;;;;43.05;22.40;;;;;;;-8.19;91.53;95611.63;4956006;28;20034;-76
2022/01/25 17:50:51;;;;;;;39.70;21.38;;;;;;;-8.12;91.67;95618.09;4962591;28;20053;-76
2022/01/25 17:53:19;;;;;;;41.67;21.45;;;;;;;-8.21;91.55;95609.97;4965600;28;20492;-76
2022/01/25 17:55:45;;;;;;;42.00;20.80;;;;;;;-8.21;91.78;95618.34;4949202;28;20042;-76
2022/01/25 17:58:11;;;;;;;43.45;22.98;;;;;;;-8.19;91.19;95635.91;4964740;28;20035;-76
2022/01/25 18:00:37;;;;;;;46.08;23.10;;;;;;;-8.16;91.61;95625.75;4968455;28;20038;-76
2022/01/25 18:03:02;;;;;;;41.95;20.58;;;;;;;-8.34;90.96;95627.13;4969070;28;20023;-76
2022/01/25 18:05:28;;;;;;;38.45;18.15;;;;;;;-9.15;90.26;95633.41;4968993;28;20031;-76
2022/01/25 18:07:53;;;;;;;32.15;17.13;;;;;;;-9.26;91.96;95637.03;4953432;28;20034;-77
2022/01/25 18:10:19;;;;;;;36.55;18.20;;;;;;;-9.19;92.96;95649.41;4969477;28;20431;-76
2022/01/25 18:12:44;;;;;;;30.63;16.55;;;;;;;-9.37;92.89;95634.78;4969145;28;20034;-76
2022/01/25 18:15:10;;;;;;;38.03;18.10;;;;;;;-9.23;94.30;95647.81;4967940;28;20085;-76
2022/01/25 18:17:37;;;;;;;35.88;18.67;;;;;;;-9.26;94.11;95644.56;4968120;28;20523;-76
2022/01/25 18:20:05;;;;;;;37.97;17.52;;;;;;;-9.31;94.05;95652.16;4968513;28;20050;-77
2022/01/25 18:22:37;;;;;;;42.35;18.77;;;;;;;-9.45;94.58;95648.34;4974833;28;20062;-76
2022/01/25 18:25:07;;;;;;;37.60;18.35;;;;;;;-9.31;94.57;95657.19;4976847;28;20535;-76
2022/01/25 18:27:33;;;;;;;38.38;17.58;;;;;;;-9.33;94.04;95650.56;4969265;28;20031;-76
2022/01/25 18:30:00;;;;;;;32.17;17.52;;;;;;;-9.40;94.14;95657.41;4971886;28;20030;-76
2022/01/25 18:32:29;;;;;;;34.95;17.45;;;;;;;-9.27;94.52;95656.25;4958681;28;20633;-77
2022/01/25 18:34:56;;;;;;;32.85;16.52;;;;;;;-9.44;94.67;95657.53;4967963;28;20046;-76
2022/01/25 18:37:21;;;;;;;31.05;16.77;;;;;;;-9.59;95.26;95661.16;4955299;28;20126;-78
2022/01/25 18:39:47;;;;;;;36.00;16.15;;;;;;;-9.67;95.59;95658.03;4956600;28;20133;-78
2022/01/25 18:42:12;;;;;;;35.22;18.10;;;;;;;-9.55;95.91;95655.25;4971294;28;20049;-78
2022/01/25 18:44:38;;;;;;;37.67;17.73;;;;;;;-9.58;95.78;95644.47;4959951;28;20038;-78
2022/01/25 18:47:08;;;;;;;36.25;19.15;;;;;;;-9.77;95.54;95659.91;4971374;28;20031;-78
2022/01/25 18:49:36;;;;;;;76.47;32.30;;;;;;;-9.89;95.20;95654.34;4976302;28;20086;-78
2022/01/25 18:52:07;;;;;;;94.93;40.28;;;;;;;-10.32;96.17;95660.25;4958900;28;20031;-78
2022/01/25 18:54:32;;;;;;;84.68;38.78;;;;;;;-10.36;97.42;95661.16;4961553;28;20081;-78
2022/01/25 18:56:58;;;;;;;64.65;29.40;;;;;;;-10.45;97.63;95653.81;4961138;28;20050;-77
2022/01/25 18:59:24;;;;;;;51.65;24.92;;;;;;;-10.49;98.08;95659.72;4965839;28;20030;-78
2022/01/25 19:01:50;;;;;;;52.20;22.77;;;;;;;-10.58;98.19;95664.91;4976634;28;20037;-77
2022/01/25 19:04:16;;;;;;;42.78;20.77;;;;;;;-10.57;98.66;95668.25;4961268;28;20030;-77
2022/01/25 19:06:41;;;;;;;45.30;21.33;;;;;;;-10.82;99.65;95658.66;4978266;28;20027;-77
2022/01/25 19:09:07;;;;;;;49.60;24.92;;;;;;;-10.83;99.07;95664.53;4960158;28;20023;-77
2022/01/25 19:11:33;;;;;;;44.65;22.58;;;;;;;-10.82;100.00;95665.34;4978597;28;20022;-78
2022/01/25 19:13:59;;;;;;;62.83;28.08;;;;;;;-10.71;99.91;95668.47;4984068;28;20061;-78
2022/01/25 19:16:25;;;;;;;107.82;44.70;;;;;;;-10.76;99.80;95668.59;4987165;28;20065;-78
2022/01/25 19:18:50;;;;;;;96.43;41.10;;;;;;;-10.77;99.98;95666.91;4971276;28;20034;-78
2022/01/25 19:21:17;;;;;;;146.93;59.72;;;;;;;-10.74;100.00;95663.53;4968037;28;21841;-78
2022/01/25 19:23:42;;;;;;;128.32;51.67;;;;;;;-10.67;99.79;95665.09;4951359;28;20043;-77
2022/01/25 19:26:08;;;;;;;61.65;27.73;;;;;;;-10.69;99.40;95659.28;4967325;28;20034;-78
2022/01/25 19:28:33;;;;;;;54.70;28.27;;;;;;;-10.77;99.32;95671.91;4975425;28;20041;-77
2022/01/25 19:30:59;;;;;;;68.47;32.33;;;;;;;-10.65;99.44;95665.88;4973704;28;20024;-78
2022/01/25 19:33:24;;;;;;;57.55;30.42;;;;;;;-10.62;99.28;95675.81;4935865;28;20041;-77
2022/01/25 19:35:51;;;;;;;60.03;29.98;;;;;;;-10.64;98.52;95666.69;4964490;28;20494;-79
2022/01/25 19:38:17;;;;;;;63.40;32.05;;;;;;;-10.63;98.19;95658.34;4971373;28;20348;-77
2022/01/25 19:40:45;;;;;;;58.83;31.70;;;;;;;-10.67;98.20;95667.59;4976910;28;20576;-78
2022/01/25 19:43:14;;;;;;;56.03;28.52;;;;;;;-10.71;97.70;95656.81;4935824;28;20118;-78
2022/01/25 19:45:39;;;;;;;51.35;23.42;;;;;;;-11.20;98.26;95670.19;4951214;28;20022;-77
2022/01/25 19:48:05;;;;;;;46.15;21.38;;;;;;;-11.17;99.01;95665.13;4967199;28;20500;-78
2022/01/25 19:50:37;;;;;;;41.63;21.95;;;;;;;-11.16;98.97;95649.28;4969136;28;20034;-77
2022/01/25 19:53:06;;;;;;;55.22;24.70;;;;;;;-11.15;99.34;95653.44;4952599;28;20026;-77
2022/01/25 19:55:37;;;;;;;140.70;60.42;;;;;;;-11.31;99.58;95646.19;4970524;28;20423;-77
2022/01/25 19:58:04;;;;;;;137.60;60.70;;;;;;;-11.21;99.42;95649.38;4972997;28;20104;-78
2022/01/25 20:00:30;;;;;;;226.93;86.80;;;;;;;-11.41;99.51;95649.69;4969734;28;20050;-78
2022/01/25 20:02:56;;;;;;;150.35;51.00;;;;;;;-11.26;98.97;95643.59;4976098;28;20083;-77
2022/01/25 20:05:22;;;;;;;81.10;34.78;;;;;;;-11.30;98.23;95644.53;4979038;28;20554;-78
2022/01/25 20:07:48;;;;;;;60.42;28.67;;;;;;;-11.26;98.30;95646.94;4956791;28;20034;-77
2022/01/25 20:10:15;;;;;;;51.45;24.35;;;;;;;-11.55;97.94;95650.72;4951066;28;20034;-78
2022/01/25 20:12:41;;;;;;;229.90;43.67;;;;;;;-11.78;98.95;95653.56;4951591;28;20396;-77
2022/01/25 20:15:08;;;;;;;104.05;44.40;;;;;;;-11.68;99.26;95647.59;4946922;28;20031;-77
2022/01/25 20:17:40;;;;;;;146.60;63.85;;;;;;;-11.76;98.94;95639.44;4939090;28;20027;-77
2022/01/25 20:20:12;;;;;;;240.13;83.85;;;;;;;-11.80;99.06;95638.63;4971087;28;20022;-77
2022/01/25 20:22:53;;;;;;;156.07;59.90;;;;;;;-11.68;98.67;95630.09;4971108;28;20049;-77
2022/01/25 20:28:19;;;;;;;48.25;22.40;;;;;;;-11.82;98.11;95644.50;4988484;28;20041;-78
2022/01/25 20:33:47;;;;;;;46.22;21.75;;;;;;;-11.95;99.42;95638.03;4972527;28;20049;-77
2022/01/25 20:36:14;;;;;;;48.17;23.02;;;;;;;-11.80;98.94;95651.13;4964183;28;20033;-77
2022/01/25 20:38:40;;;;;;;152.30;55.88;;;;;;;-12.18;99.40;95660.78;4961612;28;20541;-77